sensor_id;sensor_type;location;lat;lon;timestamp;P1;durP1;ratioP1;P2;durP2;ratioP2
31206;SDS011;17834;52.992;8.856;2023-05-14T00:02:20;10.35;;;6.50;;
31206;SDS011;17834;52.992;8.856;2023-05-14T00:04:46;9.20;;;5.85;;
31206;SDS011;17834;52.992;8.856;2023-05-14T00:07:11;9.77;;;6.55;;
31206;SDS011;17834;52.992;8.856;2023-05-14T00:09:37;8.90;;;6.32;;
31206;SDS011;17834;52.992;8.856;2023-05-14T00:12:02;11.45;;;7.13;;
31206;SDS011;17834;52.992;8.856;2023-05-14T00:14:28;8.70;;;6.63;;
31206;SDS011;17834;52.992;8.856;2023-05-14T00:16:54;9.30;;;6.60;;
31206;SDS011;17834;52.992;8.856;2023-05-14T00:19:19;17.30;;;7.55;;
31206;SDS011;17834;52.992;8.856;2023-05-14T00:21:45;10.68;;;6.88;;
31206;SDS011;17834;52.992;8.856;2023-05-14T00:24:11;13.52;;;7.18;;
31206;SDS011;17834;52.992;8.856;2023-05-14T00:26:37;12.30;;;7.70;;
31206;SDS011;17834;52.992;8.856;2023-05-14T00:29:02;11.57;;;6.70;;
31206;SDS011;17834;52.992;8.856;2023-05-14T00:31:28;10.07;;;7.13;;
31206;SDS011;17834;52.992;8.856;2023-05-14T00:33:53;12.02;;;7.47;;
31206;SDS011;17834;52.992;8.856;2023-05-14T00:36:19;9.98;;;7.05;;
31206;SDS011;17834;52.992;8.856;2023-05-14T00:38:45;12.05;;;7.60;;
31206;SDS011;17834;52.992;8.856;2023-05-14T00:41:10;13.38;;;7.57;;
31206;SDS011;17834;52.992;8.856;2023-05-14T00:43:36;14.13;;;7.80;;
31206;SDS011;17834;52.992;8.856;2023-05-14T00:46:01;13.90;;;8.00;;
31206;SDS011;17834;52.992;8.856;2023-05-14T00:48:27;15.05;;;9.13;;
31206;SDS011;17834;52.992;8.856;2023-05-14T00:50:54;12.60;;;8.43;;
31206;SDS011;17834;52.992;8.856;2023-05-14T00:53:19;14.68;;;8.90;;
31206;SDS011;17834;52.992;8.856;2023-05-14T00:55:45;13.90;;;8.18;;
31206;SDS011;17834;52.992;8.856;2023-05-14T00:58:13;14.88;;;9.43;;
31206;SDS011;17834;52.992;8.856;2023-05-14T01:00:39;11.88;;;8.20;;
31206;SDS011;17834;52.992;8.856;2023-05-14T01:03:06;13.00;;;8.43;;
31206;SDS011;17834;52.992;8.856;2023-05-14T01:05:38;12.27;;;8.30;;
31206;SDS011;17834;52.992;8.856;2023-05-14T01:11:28;12.85;;;8.35;;
31206;SDS011;17834;52.992;8.856;2023-05-14T01:14:22;13.63;;;9.20;;
31206;SDS011;17834;52.992;8.856;2023-05-14T01:17:09;14.95;;;9.27;;
31206;SDS011;17834;52.992;8.856;2023-05-14T01:22:06;13.45;;;8.60;;
31206;SDS011;17834;52.992;8.856;2023-05-14T01:24:32;12.40;;;8.43;;
31206;SDS011;17834;52.992;8.856;2023-05-14T01:27:00;13.95;;;8.95;;
31206;SDS011;17834;52.992;8.856;2023-05-14T01:29:42;11.57;;;8.05;;
31206;SDS011;17834;52.992;8.856;2023-05-14T01:32:13;13.85;;;7.90;;
31206;SDS011;17834;52.992;8.856;2023-05-14T01:34:41;12.50;;;8.30;;
31206;SDS011;17834;52.992;8.856;2023-05-14T01:37:08;14.25;;;8.18;;
31206;SDS011;17834;52.992;8.856;2023-05-14T01:39:36;15.80;;;9.50;;
31206;SDS011;17834;52.992;8.856;2023-05-14T01:42:02;12.27;;;8.13;;
31206;SDS011;17834;52.992;8.856;2023-05-14T01:44:29;14.68;;;9.05;;
31206;SDS011;17834;52.992;8.856;2023-05-14T01:46:55;13.20;;;8.27;;
31206;SDS011;17834;52.992;8.856;2023-05-14T01:49:21;15.07;;;8.40;;
31206;SDS011;17834;52.992;8.856;2023-05-14T01:51:46;15.20;;;9.35;;
31206;SDS011;17834;52.992;8.856;2023-05-14T01:54:12;15.27;;;8.52;;
31206;SDS011;17834;52.992;8.856;2023-05-14T01:56:37;14.93;;;9.43;;
31206;SDS011;17834;52.992;8.856;2023-05-14T01:59:03;13.90;;;9.70;;
31206;SDS011;17834;52.992;8.856;2023-05-14T02:01:28;17.27;;;9.88;;
31206;SDS011;17834;52.992;8.856;2023-05-14T02:03:54;15.55;;;9.73;;
31206;SDS011;17834;52.992;8.856;2023-05-14T02:06:21;14.43;;;9.55;;
31206;SDS011;17834;52.992;8.856;2023-05-14T02:08:46;14.93;;;9.52;;
31206;SDS011;17834;52.992;8.856;2023-05-14T02:11:12;16.17;;;10.45;;
31206;SDS011;17834;52.992;8.856;2023-05-14T02:13:37;17.35;;;10.25;;
31206;SDS011;17834;52.992;8.856;2023-05-14T02:16:03;16.88;;;10.18;;
31206;SDS011;17834;52.992;8.856;2023-05-14T02:18:29;13.43;;;9.32;;
31206;SDS011;17834;52.992;8.856;2023-05-14T02:20:55;12.82;;;8.82;;
31206;SDS011;17834;52.992;8.856;2023-05-14T02:23:21;13.52;;;8.82;;
31206;SDS011;17834;52.992;8.856;2023-05-14T02:25:47;17.08;;;10.23;;
31206;SDS011;17834;52.992;8.856;2023-05-14T02:28:12;16.50;;;9.95;;
31206;SDS011;17834;52.992;8.856;2023-05-14T02:30:38;17.63;;;9.68;;
31206;SDS011;17834;52.992;8.856;2023-05-14T02:33:04;16.63;;;10.43;;
31206;SDS011;17834;52.992;8.856;2023-05-14T02:35:29;18.15;;;10.32;;
31206;SDS011;17834;52.992;8.856;2023-05-14T02:37:55;15.65;;;10.25;;
31206;SDS011;17834;52.992;8.856;2023-05-14T02:40:20;18.33;;;10.15;;
31206;SDS011;17834;52.992;8.856;2023-05-14T02:42:46;16.13;;;10.35;;
31206;SDS011;17834;52.992;8.856;2023-05-14T02:45:12;17.85;;;10.40;;
31206;SDS011;17834;52.992;8.856;2023-05-14T02:47:37;17.02;;;11.07;;
31206;SDS011;17834;52.992;8.856;2023-05-14T02:50:03;16.80;;;10.95;;
31206;SDS011;17834;52.992;8.856;2023-05-14T02:52:30;17.45;;;10.75;;
31206;SDS011;17834;52.992;8.856;2023-05-14T02:54:55;20.25;;;11.48;;
31206;SDS011;17834;52.992;8.856;2023-05-14T02:57:21;28.33;;;11.85;;
31206;SDS011;17834;52.992;8.856;2023-05-14T02:59:47;17.77;;;10.55;;
31206;SDS011;17834;52.992;8.856;2023-05-14T03:02:12;16.00;;;10.68;;
31206;SDS011;17834;52.992;8.856;2023-05-14T03:04:38;17.20;;;11.00;;
31206;SDS011;17834;52.992;8.856;2023-05-14T03:07:03;18.85;;;11.25;;
31206;SDS011;17834;52.992;8.856;2023-05-14T03:09:29;20.25;;;11.43;;
31206;SDS011;17834;52.992;8.856;2023-05-14T03:11:55;17.10;;;10.82;;
31206;SDS011;17834;52.992;8.856;2023-05-14T03:14:20;17.98;;;10.68;;
31206;SDS011;17834;52.992;8.856;2023-05-14T03:16:46;22.10;;;10.95;;
31206;SDS011;17834;52.992;8.856;2023-05-14T03:19:11;16.05;;;10.05;;
31206;SDS011;17834;52.992;8.856;2023-05-14T03:21:37;16.08;;;10.48;;
31206;SDS011;17834;52.992;8.856;2023-05-14T03:24:03;16.48;;;9.88;;
31206;SDS011;17834;52.992;8.856;2023-05-14T03:26:28;16.48;;;10.88;;
31206;SDS011;17834;52.992;8.856;2023-05-14T03:28:54;16.00;;;10.18;;
31206;SDS011;17834;52.992;8.856;2023-05-14T03:31:19;17.42;;;11.25;;
31206;SDS011;17834;52.992;8.856;2023-05-14T03:33:45;17.67;;;11.15;;
31206;SDS011;17834;52.992;8.856;2023-05-14T03:36:11;15.77;;;9.93;;
31206;SDS011;17834;52.992;8.856;2023-05-14T03:38:36;14.50;;;9.88;;
31206;SDS011;17834;52.992;8.856;2023-05-14T03:41:02;18.48;;;9.82;;
31206;SDS011;17834;52.992;8.856;2023-05-14T03:43:27;15.32;;;10.02;;
31206;SDS011;17834;52.992;8.856;2023-05-14T03:45:53;16.20;;;10.23;;
31206;SDS011;17834;52.992;8.856;2023-05-14T03:48:18;16.50;;;10.23;;
31206;SDS011;17834;52.992;8.856;2023-05-14T03:50:44;15.65;;;9.50;;
31206;SDS011;17834;52.992;8.856;2023-05-14T03:53:10;15.38;;;9.98;;
31206;SDS011;17834;52.992;8.856;2023-05-14T03:55:36;15.82;;;9.68;;
31206;SDS011;17834;52.992;8.856;2023-05-14T03:58:01;13.27;;;9.07;;
31206;SDS011;17834;52.992;8.856;2023-05-14T04:00:27;16.95;;;9.07;;
31206;SDS011;17834;52.992;8.856;2023-05-14T04:02:53;20.20;;;10.75;;
31206;SDS011;17834;52.992;8.856;2023-05-14T04:05:19;13.88;;;9.38;;
31206;SDS011;17834;52.992;8.856;2023-05-14T04:07:44;15.55;;;9.52;;
31206;SDS011;17834;52.992;8.856;2023-05-14T04:10:12;12.57;;;8.23;;
31206;SDS011;17834;52.992;8.856;2023-05-14T04:12:38;12.77;;;8.32;;
31206;SDS011;17834;52.992;8.856;2023-05-14T04:15:03;15.07;;;9.73;;
31206;SDS011;17834;52.992;8.856;2023-05-14T04:17:30;15.50;;;9.20;;
31206;SDS011;17834;52.992;8.856;2023-05-14T04:19:55;16.00;;;9.48;;
31206;SDS011;17834;52.992;8.856;2023-05-14T04:22:21;15.32;;;9.50;;
31206;SDS011;17834;52.992;8.856;2023-05-14T04:24:47;14.07;;;8.90;;
31206;SDS011;17834;52.992;8.856;2023-05-14T04:27:13;11.77;;;7.72;;
31206;SDS011;17834;52.992;8.856;2023-05-14T04:29:44;10.77;;;7.72;;
31206;SDS011;17834;52.992;8.856;2023-05-14T04:32:10;11.00;;;7.45;;
31206;SDS011;17834;52.992;8.856;2023-05-14T04:34:36;8.40;;;6.63;;
31206;SDS011;17834;52.992;8.856;2023-05-14T04:37:01;9.35;;;6.13;;
31206;SDS011;17834;52.992;8.856;2023-05-14T04:39:28;10.98;;;6.00;;
31206;SDS011;17834;52.992;8.856;2023-05-14T04:41:53;7.65;;;6.10;;
31206;SDS011;17834;52.992;8.856;2023-05-14T04:44:19;7.68;;;5.75;;
31206;SDS011;17834;52.992;8.856;2023-05-14T04:46:44;8.15;;;6.25;;
31206;SDS011;17834;52.992;8.856;2023-05-14T04:49:10;7.75;;;6.30;;
31206;SDS011;17834;52.992;8.856;2023-05-14T04:51:36;8.10;;;5.07;;
31206;SDS011;17834;52.992;8.856;2023-05-14T04:54:01;9.65;;;5.65;;
31206;SDS011;17834;52.992;8.856;2023-05-14T04:56:27;7.07;;;5.50;;
31206;SDS011;17834;52.992;8.856;2023-05-14T04:58:52;6.85;;;5.47;;
31206;SDS011;17834;52.992;8.856;2023-05-14T05:01:18;7.13;;;5.50;;
31206;SDS011;17834;52.992;8.856;2023-05-14T05:03:43;9.45;;;5.10;;
31206;SDS011;17834;52.992;8.856;2023-05-14T05:06:09;8.13;;;5.45;;
31206;SDS011;17834;52.992;8.856;2023-05-14T05:08:35;8.95;;;5.32;;
31206;SDS011;17834;52.992;8.856;2023-05-14T05:11:00;12.32;;;5.18;;
31206;SDS011;17834;52.992;8.856;2023-05-14T05:13:26;6.60;;;5.05;;
31206;SDS011;17834;52.992;8.856;2023-05-14T05:15:52;10.32;;;5.57;;
31206;SDS011;17834;52.992;8.856;2023-05-14T05:18:17;8.38;;;5.93;;
31206;SDS011;17834;52.992;8.856;2023-05-14T05:20:43;14.50;;;5.75;;
31206;SDS011;17834;52.992;8.856;2023-05-14T05:23:08;7.30;;;5.32;;
31206;SDS011;17834;52.992;8.856;2023-05-14T05:25:34;5.88;;;4.85;;
31206;SDS011;17834;52.992;8.856;2023-05-14T05:28:00;8.57;;;5.65;;
31206;SDS011;17834;52.992;8.856;2023-05-14T05:30:25;7.18;;;5.30;;
31206;SDS011;17834;52.992;8.856;2023-05-14T05:32:51;6.95;;;5.03;;
31206;SDS011;17834;52.992;8.856;2023-05-14T05:35:16;7.40;;;5.15;;
31206;SDS011;17834;52.992;8.856;2023-05-14T05:37:42;7.00;;;5.20;;
31206;SDS011;17834;52.992;8.856;2023-05-14T05:40:09;7.70;;;5.22;;
31206;SDS011;17834;52.992;8.856;2023-05-14T05:42:35;6.80;;;4.85;;
31206;SDS011;17834;52.992;8.856;2023-05-14T05:45:00;8.52;;;4.80;;
31206;SDS011;17834;52.992;8.856;2023-05-14T05:47:26;6.70;;;4.63;;
31206;SDS011;17834;52.992;8.856;2023-05-14T05:49:51;8.45;;;4.82;;
31206;SDS011;17834;52.992;8.856;2023-05-14T05:52:18;8.10;;;5.15;;
31206;SDS011;17834;52.992;8.856;2023-05-14T05:54:43;7.47;;;4.63;;
31206;SDS011;17834;52.992;8.856;2023-05-14T05:57:09;7.97;;;4.57;;
31206;SDS011;17834;52.992;8.856;2023-05-14T05:59:35;6.72;;;4.10;;
31206;SDS011;17834;52.992;8.856;2023-05-14T06:02:00;5.80;;;4.25;;
31206;SDS011;17834;52.992;8.856;2023-05-14T06:04:26;5.45;;;4.50;;
31206;SDS011;17834;52.992;8.856;2023-05-14T06:06:52;7.57;;;4.43;;
31206;SDS011;17834;52.992;8.856;2023-05-14T06:09:17;5.53;;;4.18;;
31206;SDS011;17834;52.992;8.856;2023-05-14T06:11:43;10.80;;;4.25;;
31206;SDS011;17834;52.992;8.856;2023-05-14T06:14:09;7.45;;;4.40;;
31206;SDS011;17834;52.992;8.856;2023-05-14T06:16:34;4.80;;;3.75;;
31206;SDS011;17834;52.992;8.856;2023-05-14T06:19:00;5.85;;;3.97;;
31206;SDS011;17834;52.992;8.856;2023-05-14T06:21:25;5.47;;;4.55;;
31206;SDS011;17834;52.992;8.856;2023-05-14T06:23:51;4.45;;;3.78;;
31206;SDS011;17834;52.992;8.856;2023-05-14T06:26:17;11.77;;;7.03;;
31206;SDS011;17834;52.992;8.856;2023-05-14T06:28:42;5.90;;;4.78;;
31206;SDS011;17834;52.992;8.856;2023-05-14T06:31:08;5.65;;;4.57;;
31206;SDS011;17834;52.992;8.856;2023-05-14T06:33:34;5.22;;;3.90;;
31206;SDS011;17834;52.992;8.856;2023-05-14T06:36:02;6.47;;;4.78;;
31206;SDS011;17834;52.992;8.856;2023-05-14T06:38:29;7.07;;;4.55;;
31206;SDS011;17834;52.992;8.856;2023-05-14T06:40:54;6.60;;;4.82;;
31206;SDS011;17834;52.992;8.856;2023-05-14T06:43:20;6.35;;;4.78;;
31206;SDS011;17834;52.992;8.856;2023-05-14T06:45:50;7.55;;;5.45;;
31206;SDS011;17834;52.992;8.856;2023-05-14T06:48:16;7.97;;;5.03;;
31206;SDS011;17834;52.992;8.856;2023-05-14T06:50:42;6.70;;;4.82;;
31206;SDS011;17834;52.992;8.856;2023-05-14T06:53:08;10.35;;;5.20;;
31206;SDS011;17834;52.992;8.856;2023-05-14T06:55:34;7.05;;;5.03;;
31206;SDS011;17834;52.992;8.856;2023-05-14T06:58:00;6.20;;;4.53;;
31206;SDS011;17834;52.992;8.856;2023-05-14T07:00:25;6.53;;;4.63;;
31206;SDS011;17834;52.992;8.856;2023-05-14T07:02:51;6.50;;;4.82;;
31206;SDS011;17834;52.992;8.856;2023-05-14T07:05:17;6.60;;;4.10;;
31206;SDS011;17834;52.992;8.856;2023-05-14T07:07:43;5.88;;;4.00;;
31206;SDS011;17834;52.992;8.856;2023-05-14T07:10:09;6.60;;;3.92;;
31206;SDS011;17834;52.992;8.856;2023-05-14T07:12:34;8.02;;;4.53;;
31206;SDS011;17834;52.992;8.856;2023-05-14T07:15:00;9.60;;;4.30;;
31206;SDS011;17834;52.992;8.856;2023-05-14T07:17:26;5.45;;;4.15;;
31206;SDS011;17834;52.992;8.856;2023-05-14T07:19:51;5.65;;;4.28;;
31206;SDS011;17834;52.992;8.856;2023-05-14T07:22:19;5.40;;;3.95;;
31206;SDS011;17834;52.992;8.856;2023-05-14T07:24:44;5.97;;;4.60;;
31206;SDS011;17834;52.992;8.856;2023-05-14T07:27:10;5.55;;;3.90;;
31206;SDS011;17834;52.992;8.856;2023-05-14T07:29:36;5.88;;;3.83;;
31206;SDS011;17834;52.992;8.856;2023-05-14T07:32:02;7.13;;;3.80;;
31206;SDS011;17834;52.992;8.856;2023-05-14T07:34:27;7.05;;;4.75;;
31206;SDS011;17834;52.992;8.856;2023-05-14T07:36:53;6.00;;;4.28;;
31206;SDS011;17834;52.992;8.856;2023-05-14T07:39:19;7.07;;;4.35;;
31206;SDS011;17834;52.992;8.856;2023-05-14T07:41:44;4.82;;;3.33;;
31206;SDS011;17834;52.992;8.856;2023-05-14T07:44:10;5.57;;;3.97;;
31206;SDS011;17834;52.992;8.856;2023-05-14T07:46:35;5.32;;;3.97;;
31206;SDS011;17834;52.992;8.856;2023-05-14T07:49:01;5.70;;;4.15;;
31206;SDS011;17834;52.992;8.856;2023-05-14T07:51:27;5.53;;;3.40;;
31206;SDS011;17834;52.992;8.856;2023-05-14T07:53:53;5.22;;;3.55;;
31206;SDS011;17834;52.992;8.856;2023-05-14T07:56:19;5.95;;;4.18;;
31206;SDS011;17834;52.992;8.856;2023-05-14T07:58:46;5.43;;;4.22;;
31206;SDS011;17834;52.992;8.856;2023-05-14T08:01:11;4.85;;;3.55;;
31206;SDS011;17834;52.992;8.856;2023-05-14T08:03:37;5.35;;;3.92;;
31206;SDS011;17834;52.992;8.856;2023-05-14T08:06:03;6.47;;;3.58;;
31206;SDS011;17834;52.992;8.856;2023-05-14T08:08:29;5.65;;;3.78;;
31206;SDS011;17834;52.992;8.856;2023-05-14T08:10:55;4.68;;;3.40;;
31206;SDS011;17834;52.992;8.856;2023-05-14T08:13:20;4.85;;;3.38;;
31206;SDS011;17834;52.992;8.856;2023-05-14T08:15:46;5.05;;;3.60;;
31206;SDS011;17834;52.992;8.856;2023-05-14T08:18:11;5.50;;;3.80;;
31206;SDS011;17834;52.992;8.856;2023-05-14T08:20:37;5.97;;;3.83;;
31206;SDS011;17834;52.992;8.856;2023-05-14T08:23:03;5.10;;;3.80;;
31206;SDS011;17834;52.992;8.856;2023-05-14T08:25:28;4.57;;;3.72;;
31206;SDS011;17834;52.992;8.856;2023-05-14T08:27:54;5.32;;;3.88;;
31206;SDS011;17834;52.992;8.856;2023-05-14T08:30:20;5.20;;;3.88;;
31206;SDS011;17834;52.992;8.856;2023-05-14T08:32:46;5.60;;;3.33;;
31206;SDS011;17834;52.992;8.856;2023-05-14T08:35:12;5.18;;;3.15;;
31206;SDS011;17834;52.992;8.856;2023-05-14T08:37:37;5.90;;;3.22;;
31206;SDS011;17834;52.992;8.856;2023-05-14T08:40:03;5.40;;;3.58;;
31206;SDS011;17834;52.992;8.856;2023-05-14T08:42:29;3.83;;;3.17;;
31206;SDS011;17834;52.992;8.856;2023-05-14T08:45:02;4.97;;;3.33;;
31206;SDS011;17834;52.992;8.856;2023-05-14T08:47:29;7.72;;;3.47;;
31206;SDS011;17834;52.992;8.856;2023-05-14T08:50:05;5.00;;;3.10;;
31206;SDS011;17834;52.992;8.856;2023-05-14T08:52:34;5.05;;;3.60;;
31206;SDS011;17834;52.992;8.856;2023-05-14T08:55:01;7.63;;;2.88;;
31206;SDS011;17834;52.992;8.856;2023-05-14T08:57:29;4.25;;;3.20;;
31206;SDS011;17834;52.992;8.856;2023-05-14T08:59:55;4.53;;;2.95;;
31206;SDS011;17834;52.992;8.856;2023-05-14T09:02:26;5.30;;;2.90;;
31206;SDS011;17834;52.992;8.856;2023-05-14T09:04:57;5.10;;;3.03;;
31206;SDS011;17834;52.992;8.856;2023-05-14T09:07:24;5.70;;;3.38;;
31206;SDS011;17834;52.992;8.856;2023-05-14T09:09:50;6.68;;;4.03;;
31206;SDS011;17834;52.992;8.856;2023-05-14T09:12:16;4.20;;;3.15;;
31206;SDS011;17834;52.992;8.856;2023-05-14T09:14:42;4.47;;;3.22;;
31206;SDS011;17834;52.992;8.856;2023-05-14T09:17:08;6.15;;;3.40;;
31206;SDS011;17834;52.992;8.856;2023-05-14T09:19:36;7.60;;;3.03;;
31206;SDS011;17834;52.992;8.856;2023-05-14T09:22:10;7.20;;;3.60;;
31206;SDS011;17834;52.992;8.856;2023-05-14T09:24:37;3.83;;;3.00;;
31206;SDS011;17834;52.992;8.856;2023-05-14T09:27:04;4.28;;;3.22;;
31206;SDS011;17834;52.992;8.856;2023-05-14T09:29:30;5.55;;;3.47;;
31206;SDS011;17834;52.992;8.856;2023-05-14T09:31:57;5.65;;;3.00;;
31206;SDS011;17834;52.992;8.856;2023-05-14T09:34:24;4.20;;;3.10;;
31206;SDS011;17834;52.992;8.856;2023-05-14T09:36:58;6.28;;;2.90;;
31206;SDS011;17834;52.992;8.856;2023-05-14T09:39:26;4.07;;;3.10;;
31206;SDS011;17834;52.992;8.856;2023-05-14T09:41:52;5.20;;;3.65;;
31206;SDS011;17834;52.992;8.856;2023-05-14T09:44:19;4.72;;;3.13;;
31206;SDS011;17834;52.992;8.856;2023-05-14T09:46:45;6.93;;;3.00;;
31206;SDS011;17834;52.992;8.856;2023-05-14T09:49:11;4.90;;;3.00;;
31206;SDS011;17834;52.992;8.856;2023-05-14T09:51:36;4.85;;;3.20;;
31206;SDS011;17834;52.992;8.856;2023-05-14T09:54:05;3.90;;;2.95;;
31206;SDS011;17834;52.992;8.856;2023-05-14T09:56:31;6.57;;;3.22;;
31206;SDS011;17834;52.992;8.856;2023-05-14T09:58:58;4.00;;;2.67;;
31206;SDS011;17834;52.992;8.856;2023-05-14T10:01:24;5.32;;;2.63;;
31206;SDS011;17834;52.992;8.856;2023-05-14T10:03:51;7.78;;;3.17;;
31206;SDS011;17834;52.992;8.856;2023-05-14T10:06:18;3.95;;;3.05;;
31206;SDS011;17834;52.992;8.856;2023-05-14T10:08:47;4.03;;;2.70;;
31206;SDS011;17834;52.992;8.856;2023-05-14T10:11:19;3.75;;;3.08;;
31206;SDS011;17834;52.992;8.856;2023-05-14T10:14:02;4.45;;;3.08;;
31206;SDS011;17834;52.992;8.856;2023-05-14T10:16:50;4.68;;;3.30;;
31206;SDS011;17834;52.992;8.856;2023-05-14T10:19:17;4.15;;;3.15;;
31206;SDS011;17834;52.992;8.856;2023-05-14T10:21:46;4.65;;;3.08;;
31206;SDS011;17834;52.992;8.856;2023-05-14T10:24:15;3.97;;;2.80;;
31206;SDS011;17834;52.992;8.856;2023-05-14T10:26:41;4.68;;;3.20;;
31206;SDS011;17834;52.992;8.856;2023-05-14T10:29:11;5.15;;;2.90;;
31206;SDS011;17834;52.992;8.856;2023-05-14T10:31:52;9.45;;;3.38;;
31206;SDS011;17834;52.992;8.856;2023-05-14T10:37:08;4.85;;;3.42;;
31206;SDS011;17834;52.992;8.856;2023-05-14T10:39:51;5.55;;;3.28;;
31206;SDS011;17834;52.992;8.856;2023-05-14T10:42:19;3.72;;;2.63;;
31206;SDS011;17834;52.992;8.856;2023-05-14T10:44:50;5.20;;;2.72;;
31206;SDS011;17834;52.992;8.856;2023-05-14T10:47:22;3.50;;;2.80;;
31206;SDS011;17834;52.992;8.856;2023-05-14T10:49:56;4.30;;;2.70;;
31206;SDS011;17834;52.992;8.856;2023-05-14T10:52:24;4.50;;;2.78;;
31206;SDS011;17834;52.992;8.856;2023-05-14T10:54:51;4.78;;;3.00;;
31206;SDS011;17834;52.992;8.856;2023-05-14T10:57:18;6.18;;;3.30;;
31206;SDS011;17834;52.992;8.856;2023-05-14T10:59:49;3.78;;;2.70;;
31206;SDS011;17834;52.992;8.856;2023-05-14T11:02:24;4.43;;;3.05;;
31206;SDS011;17834;52.992;8.856;2023-05-14T11:04:54;3.85;;;2.55;;
31206;SDS011;17834;52.992;8.856;2023-05-14T11:07:28;3.75;;;2.78;;
31206;SDS011;17834;52.992;8.856;2023-05-14T11:10:01;5.43;;;3.10;;
31206;SDS011;17834;52.992;8.856;2023-05-14T11:12:28;4.10;;;2.90;;
31206;SDS011;17834;52.992;8.856;2023-05-14T11:14:55;3.85;;;2.60;;
31206;SDS011;17834;52.992;8.856;2023-05-14T11:17:23;4.28;;;2.50;;
31206;SDS011;17834;52.992;8.856;2023-05-14T11:19:53;3.30;;;2.50;;
31206;SDS011;17834;52.992;8.856;2023-05-14T11:22:19;3.70;;;2.92;;
31206;SDS011;17834;52.992;8.856;2023-05-14T11:24:45;4.15;;;2.63;;
31206;SDS011;17834;52.992;8.856;2023-05-14T11:27:10;4.28;;;2.97;;
31206;SDS011;17834;52.992;8.856;2023-05-14T11:29:36;5.18;;;3.08;;
31206;SDS011;17834;52.992;8.856;2023-05-14T11:32:03;4.00;;;2.83;;
31206;SDS011;17834;52.992;8.856;2023-05-14T11:34:30;4.85;;;3.15;;
31206;SDS011;17834;52.992;8.856;2023-05-14T11:36:56;4.60;;;2.90;;
31206;SDS011;17834;52.992;8.856;2023-05-14T11:39:21;5.95;;;2.72;;
31206;SDS011;17834;52.992;8.856;2023-05-14T11:41:47;4.50;;;2.85;;
31206;SDS011;17834;52.992;8.856;2023-05-14T11:44:12;4.47;;;3.00;;
31206;SDS011;17834;52.992;8.856;2023-05-14T11:46:38;4.15;;;2.92;;
31206;SDS011;17834;52.992;8.856;2023-05-14T11:49:04;5.50;;;2.97;;
31206;SDS011;17834;52.992;8.856;2023-05-14T11:51:30;3.30;;;2.30;;
31206;SDS011;17834;52.992;8.856;2023-05-14T11:53:56;4.00;;;2.80;;
31206;SDS011;17834;52.992;8.856;2023-05-14T11:56:25;4.20;;;2.83;;
31206;SDS011;17834;52.992;8.856;2023-05-14T11:58:56;4.93;;;3.58;;
31206;SDS011;17834;52.992;8.856;2023-05-14T12:01:22;4.53;;;3.40;;
31206;SDS011;17834;52.992;8.856;2023-05-14T12:03:48;3.83;;;2.88;;
31206;SDS011;17834;52.992;8.856;2023-05-14T12:06:14;4.88;;;3.22;;
31206;SDS011;17834;52.992;8.856;2023-05-14T12:08:40;5.20;;;3.20;;
31206;SDS011;17834;52.992;8.856;2023-05-14T12:11:05;3.85;;;3.00;;
31206;SDS011;17834;52.992;8.856;2023-05-14T12:13:33;6.20;;;3.20;;
31206;SDS011;17834;52.992;8.856;2023-05-14T12:16:00;4.60;;;3.08;;
31206;SDS011;17834;52.992;8.856;2023-05-14T12:18:27;4.70;;;3.33;;
31206;SDS011;17834;52.992;8.856;2023-05-14T12:20:54;6.10;;;3.20;;
31206;SDS011;17834;52.992;8.856;2023-05-14T12:23:26;4.70;;;3.03;;
31206;SDS011;17834;52.992;8.856;2023-05-14T12:26:02;4.00;;;2.92;;
31206;SDS011;17834;52.992;8.856;2023-05-14T12:28:30;4.38;;;2.97;;
31206;SDS011;17834;52.992;8.856;2023-05-14T12:30:56;4.60;;;2.88;;
31206;SDS011;17834;52.992;8.856;2023-05-14T12:33:22;3.58;;;3.20;;
31206;SDS011;17834;52.992;8.856;2023-05-14T12:35:51;5.22;;;3.22;;
31206;SDS011;17834;52.992;8.856;2023-05-14T12:38:18;4.88;;;3.30;;
31206;SDS011;17834;52.992;8.856;2023-05-14T12:40:44;5.00;;;3.35;;
31206;SDS011;17834;52.992;8.856;2023-05-14T12:43:09;5.38;;;3.30;;
31206;SDS011;17834;52.992;8.856;2023-05-14T12:45:35;7.07;;;3.92;;
31206;SDS011;17834;52.992;8.856;2023-05-14T12:48:01;5.47;;;3.28;;
31206;SDS011;17834;52.992;8.856;2023-05-14T12:50:26;4.53;;;3.38;;
31206;SDS011;17834;52.992;8.856;2023-05-14T12:52:52;5.75;;;3.20;;
31206;SDS011;17834;52.992;8.856;2023-05-14T12:55:17;7.15;;;4.10;;
31206;SDS011;17834;52.992;8.856;2023-05-14T12:57:43;6.28;;;3.30;;
31206;SDS011;17834;52.992;8.856;2023-05-14T13:00:09;5.18;;;3.53;;
31206;SDS011;17834;52.992;8.856;2023-05-14T13:02:35;6.05;;;3.53;;
31206;SDS011;17834;52.992;8.856;2023-05-14T13:05:00;5.28;;;3.17;;
31206;SDS011;17834;52.992;8.856;2023-05-14T13:07:29;5.32;;;3.28;;
31206;SDS011;17834;52.992;8.856;2023-05-14T13:09:55;6.55;;;3.42;;
31206;SDS011;17834;52.992;8.856;2023-05-14T13:12:22;3.33;;;2.85;;
31206;SDS011;17834;52.992;8.856;2023-05-14T13:14:48;5.50;;;3.15;;
31206;SDS011;17834;52.992;8.856;2023-05-14T13:17:14;3.95;;;2.88;;
31206;SDS011;17834;52.992;8.856;2023-05-14T13:19:39;6.45;;;3.35;;
31206;SDS011;17834;52.992;8.856;2023-05-14T13:22:05;4.72;;;3.50;;
31206;SDS011;17834;52.992;8.856;2023-05-14T13:24:30;4.45;;;3.17;;
31206;SDS011;17834;52.992;8.856;2023-05-14T13:26:56;6.45;;;3.30;;
31206;SDS011;17834;52.992;8.856;2023-05-14T13:29:21;4.63;;;3.25;;
31206;SDS011;17834;52.992;8.856;2023-05-14T13:31:47;4.05;;;3.15;;
31206;SDS011;17834;52.992;8.856;2023-05-14T13:34:13;5.25;;;3.17;;
31206;SDS011;17834;52.992;8.856;2023-05-14T13:36:40;3.75;;;3.10;;
31206;SDS011;17834;52.992;8.856;2023-05-14T13:39:07;4.25;;;3.03;;
31206;SDS011;17834;52.992;8.856;2023-05-14T13:41:33;5.20;;;3.60;;
31206;SDS011;17834;52.992;8.856;2023-05-14T13:43:59;5.25;;;3.25;;
31206;SDS011;17834;52.992;8.856;2023-05-14T13:46:25;4.13;;;3.13;;
31206;SDS011;17834;52.992;8.856;2023-05-14T13:48:50;4.72;;;3.30;;
31206;SDS011;17834;52.992;8.856;2023-05-14T13:51:16;4.47;;;3.42;;
31206;SDS011;17834;52.992;8.856;2023-05-14T13:53:42;5.22;;;3.45;;
31206;SDS011;17834;52.992;8.856;2023-05-14T13:56:08;4.25;;;3.20;;
31206;SDS011;17834;52.992;8.856;2023-05-14T13:58:33;5.25;;;3.38;;
31206;SDS011;17834;52.992;8.856;2023-05-14T14:00:59;6.32;;;3.33;;
31206;SDS011;17834;52.992;8.856;2023-05-14T14:03:25;4.22;;;2.85;;
31206;SDS011;17834;52.992;8.856;2023-05-14T14:05:51;4.72;;;3.08;;
31206;SDS011;17834;52.992;8.856;2023-05-14T14:08:16;4.32;;;3.13;;
31206;SDS011;17834;52.992;8.856;2023-05-14T14:10:42;6.40;;;3.65;;
31206;SDS011;17834;52.992;8.856;2023-05-14T14:13:08;5.07;;;2.92;;
31206;SDS011;17834;52.992;8.856;2023-05-14T14:15:34;6.43;;;3.10;;
31206;SDS011;17834;52.992;8.856;2023-05-14T14:18:00;5.03;;;3.35;;
31206;SDS011;17834;52.992;8.856;2023-05-14T14:20:26;5.97;;;3.22;;
31206;SDS011;17834;52.992;8.856;2023-05-14T14:22:51;4.18;;;2.55;;
31206;SDS011;17834;52.992;8.856;2023-05-14T14:25:18;3.38;;;2.85;;
31206;SDS011;17834;52.992;8.856;2023-05-14T14:27:43;3.85;;;2.72;;
31206;SDS011;17834;52.992;8.856;2023-05-14T14:30:10;3.70;;;2.80;;
31206;SDS011;17834;52.992;8.856;2023-05-14T14:32:46;3.33;;;2.50;;
31206;SDS011;17834;52.992;8.856;2023-05-14T14:35:13;4.22;;;2.78;;
31206;SDS011;17834;52.992;8.856;2023-05-14T14:37:41;7.32;;;3.15;;
31206;SDS011;17834;52.992;8.856;2023-05-14T14:40:09;3.45;;;2.65;;
31206;SDS011;17834;52.992;8.856;2023-05-14T14:42:35;6.35;;;3.17;;
31206;SDS011;17834;52.992;8.856;2023-05-14T14:45:01;5.10;;;2.90;;
31206;SDS011;17834;52.992;8.856;2023-05-14T14:47:28;4.10;;;2.75;;
31206;SDS011;17834;52.992;8.856;2023-05-14T14:49:54;3.60;;;2.88;;